Terminal Aerodrome Forecast
Issued by NWS Shreveport, LA

Home | Current Version | Previous Version | Text Only | Print | Product List | Glossary On
Versions: 1 2 3 4 5 6 7 8 9 10 11 12 13 14 15 16 17 18 19
265
FTUS44 KSHV 240522
TAFTYR
TAF
KTYR 240522Z 2406/2506 12005KT P6SM SKC
      TEMPO 2410/2414 5SM BR
     FM241500 16006KT P6SM SKC
     FM241700 15008KT P6SM SCT040
     FM250000 14007KT P6SM SCT050=

USA.gov is the U.S. government's official web portal to all federal, state and local government web resources and services.